createdAt,value
2022-10-05T00:01:27.003Z,8.60
2022-10-05T00:06:20.352Z,8.37
2022-10-05T00:11:18.683Z,8.80
2022-10-05T00:16:19.270Z,8.83
2022-10-05T00:21:21.874Z,7.97
2022-10-05T00:26:22.732Z,8.47
2022-10-05T00:31:20.663Z,8.30
2022-10-05T00:36:14.816Z,9.07
2022-10-05T00:41:14.968Z,8.27
2022-10-05T00:46:18.717Z,7.43
2022-10-05T00:51:26.160Z,8.07
2022-10-05T00:56:48.933Z,8.30
2022-10-05T01:01:52.098Z,8.77
2022-10-05T01:07:05.480Z,8.73
2022-10-05T01:12:10.449Z,7.97
2022-10-05T01:17:17.125Z,9.23
2022-10-05T01:22:26.622Z,8.73
2022-10-05T01:27:49.109Z,9.37
2022-10-05T01:32:51.911Z,8.53
2022-10-05T01:37:59.863Z,8.93
2022-10-05T01:43:11.619Z,9.57
2022-10-05T01:48:15.969Z,9.70
2022-10-05T01:53:24.382Z,8.97
2022-10-05T01:58:34.964Z,9.50
2022-10-05T02:03:38.152Z,10.00
2022-10-05T02:08:39.129Z,8.80
2022-10-05T02:13:41.213Z,9.60
2022-10-05T02:18:42.604Z,9.57
2022-10-05T02:23:41.419Z,9.27
2022-10-05T02:28:44.195Z,8.37
2022-10-05T02:33:37.972Z,10.40
2022-10-05T02:38:47.204Z,10.30
2022-10-05T02:43:55.385Z,10.17
2022-10-05T02:49:05.357Z,9.07
2022-10-05T02:54:14.877Z,9.37
2022-10-05T02:59:18.112Z,8.23
2022-10-05T03:04:33.043Z,8.50
2022-10-05T03:09:37.364Z,8.70
2022-10-05T03:14:46.678Z,7.40
2022-10-05T03:20:07.886Z,7.37
2022-10-05T03:25:31.528Z,8.17
2022-10-05T03:30:30.670Z,6.90
2022-10-05T03:35:32.129Z,8.03
2022-10-05T03:40:37.734Z,7.83
2022-10-05T03:45:41.811Z,7.33
2022-10-05T03:50:47.135Z,7.53
2022-10-05T03:55:47.599Z,7.70
2022-10-05T04:00:48.755Z,7.90
2022-10-05T04:05:50.441Z,7.20
2022-10-05T04:10:49.842Z,7.23
2022-10-05T04:15:52.982Z,7.07
2022-10-05T04:20:53.649Z,6.37
2022-10-05T04:25:54.942Z,6.77
2022-10-05T04:30:54.316Z,6.97
2022-10-05T04:36:19.930Z,7.87
2022-10-05T04:41:37.529Z,7.47
2022-10-05T04:46:58.145Z,7.33
2022-10-05T04:52:03.019Z,7.67
2022-10-05T04:57:01.666Z,7.50
2022-10-05T05:02:10.094Z,7.70
2022-10-05T05:07:25.950Z,8.07
2022-10-05T05:12:38.815Z,7.90
2022-10-05T05:18:07.661Z,31.40
2022-10-05T05:23:14.149Z,14.67
2022-10-05T05:28:26.555Z,26.93
2022-10-05T05:33:24.252Z,9.00
2022-10-05T05:38:32.482Z,13.43
2022-10-05T05:43:35.414Z,7.87
2022-10-05T05:48:39.051Z,8.50
2022-10-05T05:53:42.059Z,11.27
2022-10-05T05:58:48.554Z,9.80
2022-10-05T06:03:50.871Z,8.37
2022-10-05T06:08:50.294Z,10.50
2022-10-05T06:13:44.616Z,8.93
2022-10-05T06:18:44.682Z,8.00
2022-10-05T06:23:46.209Z,8.93
2022-10-05T06:28:39.846Z,9.53
2022-10-05T06:33:50.254Z,8.47
2022-10-05T06:39:16.987Z,7.90
2022-10-05T06:44:17.738Z,8.07
2022-10-05T06:49:22.276Z,8.33
2022-10-05T06:54:36.537Z,8.47
2022-10-05T06:59:56.602Z,8.93
2022-10-05T07:05:32.247Z,7.97
2022-10-05T07:10:34.056Z,9.10
2022-10-05T07:16:00.712Z,9.50
2022-10-05T07:21:07.826Z,9.33
2022-10-05T07:26:10.539Z,9.13
2022-10-05T07:31:17.233Z,9.70
2022-10-05T07:36:38.580Z,9.43
2022-10-05T07:41:44.972Z,9.03
2022-10-05T07:46:51.952Z,9.40
2022-10-05T07:51:52.191Z,10.30
2022-10-05T07:56:50.434Z,10.57
2022-10-05T08:01:52.074Z,13.40
2022-10-05T08:06:53.620Z,10.03
2022-10-05T08:11:57.455Z,10.00
2022-10-05T08:16:59.350Z,9.97
2022-10-05T08:22:01.531Z,9.83
2022-10-05T08:27:06.879Z,9.13
2022-10-05T08:32:05.316Z,9.87
2022-10-05T08:37:08.003Z,10.13
2022-10-05T08:43:04.929Z,9.57
2022-10-05T08:49:14.254Z,9.77
2022-10-05T08:54:54.502Z,9.83
2022-10-05T09:00:32.442Z,10.70
2022-10-05T09:06:14.419Z,9.97
2022-10-05T09:11:19.047Z,10.37
2022-10-05T09:16:48.499Z,11.50
2022-10-05T09:21:45.513Z,12.00
2022-10-05T09:27:01.198Z,11.20
2022-10-05T09:32:30.360Z,10.93
2022-10-05T09:38:07.129Z,11.90
2022-10-05T09:43:41.418Z,10.83
2022-10-05T09:49:11.474Z,10.00
2022-10-05T09:55:01.425Z,10.57
2022-10-05T10:00:38.197Z,10.10
2022-10-05T10:06:13.755Z,12.80
2022-10-05T10:11:31.700Z,9.80
2022-10-05T10:16:49.626Z,9.93
2022-10-05T10:22:14.925Z,10.27
2022-10-05T10:27:34.843Z,11.53
2022-10-05T10:33:18.901Z,9.53
2022-10-05T10:38:40.217Z,9.27
2022-10-05T10:44:32.800Z,9.50
2022-10-05T10:50:05.270Z,7.33
2022-10-05T10:55:42.528Z,8.83
2022-10-05T11:00:50.746Z,9.27
2022-10-05T11:06:22.535Z,8.63
2022-10-05T11:11:53.291Z,9.17
2022-10-05T11:17:20.528Z,8.10
2022-10-05T11:22:54.184Z,7.90
2022-10-05T11:28:20.915Z,8.73
2022-10-05T11:34:19.467Z,9.43
2022-10-05T11:39:42.826Z,10.00
2022-10-05T11:45:21.693Z,9.40
2022-10-05T11:50:32.715Z,10.00
2022-10-05T11:55:33.022Z,10.03
2022-10-05T12:00:35.660Z,12.47
2022-10-05T12:05:41.302Z,8.83
2022-10-05T12:11:01.766Z,10.55
2022-10-05T12:16:06.782Z,10.67
2022-10-05T12:21:12.058Z,9.10
2022-10-05T12:26:16.096Z,9.02
2022-10-05T12:31:58.760Z,8.73
2022-10-05T12:37:13.997Z,7.57
2022-10-05T12:42:31.999Z,6.38
2022-10-05T12:47:37.470Z,5.85
2022-10-05T12:52:59.855Z,5.13
2022-10-05T12:58:15.186Z,4.78
2022-10-05T13:03:24.739Z,4.83
2022-10-05T13:08:29.677Z,5.05
2022-10-05T13:13:40.880Z,5.30
2022-10-05T13:18:46.243Z,4.78
2022-10-05T13:23:57.666Z,4.55
2022-10-05T13:29:01.000Z,4.72
2022-10-05T13:34:18.932Z,4.85
2022-10-05T13:39:34.848Z,5.80
2022-10-05T13:44:44.294Z,7.65
2022-10-05T13:49:48.619Z,7.88
2022-10-05T13:54:51.977Z,6.28
2022-10-05T13:59:54.985Z,5.72
2022-10-05T14:04:51.913Z,5.45
2022-10-05T14:09:50.633Z,5.30
2022-10-05T14:14:52.133Z,4.30
2022-10-05T14:19:51.674Z,3.95
2022-10-05T14:25:04.008Z,4.25
2022-10-05T14:30:04.386Z,4.00
2022-10-05T14:35:16.658Z,3.70
2022-10-05T14:40:36.884Z,3.70
2022-10-05T14:45:35.575Z,3.00
2022-10-05T14:50:31.677Z,3.78
2022-10-05T14:55:42.909Z,3.95
2022-10-05T15:00:52.017Z,3.20
2022-10-05T15:05:53.356Z,2.70
2022-10-05T15:10:53.814Z,2.70
2022-10-05T15:15:54.785Z,2.42
2022-10-05T15:20:58.478Z,2.40
2022-10-05T15:26:05.003Z,2.13
2022-10-05T15:31:06.838Z,3.30
2022-10-05T15:36:40.319Z,2.30
2022-10-05T15:42:18.086Z,3.08
2022-10-05T15:47:38.496Z,3.30
2022-10-05T15:52:48.161Z,3.05
2022-10-05T15:57:58.575Z,3.20
2022-10-05T16:03:18.917Z,3.00
2022-10-05T16:08:59.494Z,2.95
2022-10-05T16:14:19.010Z,3.10
2022-10-05T16:20:28.843Z,3.10
2022-10-05T16:27:00.010Z,3.15
2022-10-05T16:31:38.526Z,3.83
2022-10-05T16:37:01.427Z,3.80
2022-10-05T16:42:14.549Z,4.32
2022-10-05T16:47:35.665Z,4.00
2022-10-05T16:52:30.398Z,4.00
2022-10-05T16:57:30.489Z,4.25
2022-10-05T17:02:45.936Z,4.35
2022-10-05T17:07:59.811Z,5.60
2022-10-05T17:13:16.301Z,5.72
2022-10-05T17:18:50.195Z,5.65
2022-10-05T17:23:56.146Z,5.53
2022-10-05T17:29:09.509Z,7.03
2022-10-05T17:34:27.317Z,10.02
2022-10-05T17:39:23.895Z,10.02
2022-10-05T17:44:26.855Z,11.80
2022-10-05T17:50:17.511Z,10.15
2022-10-05T17:55:45.029Z,9.85
2022-10-05T18:01:07.762Z,8.77
2022-10-05T18:06:41.750Z,7.95
2022-10-05T18:11:41.391Z,10.52
2022-10-05T18:17:01.873Z,11.93
2022-10-05T18:22:08.946Z,10.48
2022-10-05T18:27:31.921Z,11.50
2022-10-05T18:32:49.784Z,11.60
2022-10-05T18:38:13.731Z,12.75
2022-10-05T18:43:31.829Z,11.77
2022-10-05T18:48:49.027Z,10.30
2022-10-05T18:53:54.705Z,11.37
2022-10-05T18:59:10.492Z,10.40
2022-10-05T19:04:22.282Z,9.63
2022-10-05T19:09:41.258Z,8.43
2022-10-05T19:14:49.264Z,8.00
2022-10-05T19:20:10.308Z,7.17
2022-10-05T19:25:26.756Z,7.10
2022-10-05T19:30:23.667Z,9.77
2022-10-05T19:35:33.362Z,15.00
2022-10-05T19:40:42.868Z,23.03
2022-10-05T19:45:44.415Z,19.73
2022-10-05T19:50:39.822Z,18.03
2022-10-05T19:55:37.402Z,16.27
2022-10-05T20:00:33.935Z,11.33
2022-10-05T20:05:27.159Z,9.10
2022-10-05T20:10:30.857Z,8.87
2022-10-05T20:15:44.854Z,7.53
2022-10-05T20:20:44.501Z,7.57
2022-10-05T20:25:41.947Z,7.50
2022-10-05T20:30:35.242Z,7.87
2022-10-05T20:35:30.794Z,7.93
2022-10-05T20:40:24.266Z,7.30
2022-10-05T20:45:19.045Z,6.90
2022-10-05T20:50:13.001Z,6.47
2022-10-05T20:55:10.317Z,6.20
2022-10-05T21:00:03.639Z,5.67
2022-10-05T21:04:58.329Z,6.13
2022-10-05T21:09:52.183Z,7.27
2022-10-05T21:14:46.207Z,6.80
2022-10-05T21:19:40.513Z,6.67
2022-10-05T21:24:36.893Z,7.03
2022-10-05T21:29:30.349Z,7.60
2022-10-05T21:34:23.566Z,6.37
2022-10-05T21:39:17.682Z,8.80
2022-10-05T21:44:12.356Z,8.70
2022-10-05T21:49:07.871Z,6.77
2022-10-05T21:54:05.812Z,6.20
2022-10-05T21:59:00.084Z,6.13
2022-10-05T22:03:54.676Z,6.20
2022-10-05T22:08:47.954Z,5.50
2022-10-05T22:13:44.908Z,5.03
2022-10-05T22:18:38.554Z,5.30
2022-10-05T22:23:35.705Z,6.00
2022-10-05T22:28:29.812Z,5.33
2022-10-05T22:33:23.372Z,5.20
2022-10-05T22:38:16.877Z,5.57
2022-10-05T22:43:13.452Z,5.27
2022-10-05T22:48:06.764Z,5.20
2022-10-05T22:53:00.038Z,4.70
2022-10-05T22:57:53.547Z,5.20
2022-10-05T23:02:48.295Z,4.83
2022-10-05T23:07:44.508Z,8.37
2022-10-05T23:12:37.839Z,7.90
2022-10-05T23:17:33.577Z,6.10
2022-10-05T23:22:28.230Z,4.80
2022-10-05T23:27:21.773Z,4.10
2022-10-05T23:32:14.995Z,4.43
2022-10-05T23:37:08.352Z,3.90
2022-10-05T23:42:02.991Z,4.00
2022-10-05T23:46:56.225Z,4.30
2022-10-05T23:51:49.444Z,4.73
2022-10-05T23:56:42.875Z,4.60
